Kobuk Valley National Park, AK

9:56 AM AKST op 21 november 2014 (GMT -0900)
Baker Memorial | Change Station
CLOSE
Current Station
Luchthaven
Location: Kiana,
Geometrische hoogte: 151 ft
Nabije weerstations

Hoogte 151 ft 66.98 °N, 160.44 °W | Updated 55 minutes ago

Clear
Helder
26 °F
Voelt als 14 °F
N
15
Wind Variabel Wind van oost
Gusts 28 mijl/u

Vandaag
Hoog -- | Laag -- °F
--% Kans op neerslag
Gisteren
Hoog -- | Laag -- °F
Precip. -- inches
11:16 AM 3:37 PM
Afnemende halvemaan, 1% visible
Druk 29.54 inches
Zicht 10.0 mijlen
Wolken Helder
Gevoelstemperatuur 14 °F
Dauwpunt 16 °F
Vochtigheid 66%
Neerslag 0.00 inches
Dikte sneeuw Niet beschikbaar.
UV 0 van de 12
Pollen Niet beschikbaar.
Luchtkwaliteit Niet beschikbaar.
Flu Activity Niet beschikbaar.
METAR PAIK 211801Z AUTO 08013G24KT 10SM CLR M03/M09 A2942 RMK AO2 SLP003 T10331089 11022 21044 58007 FZRANO

More Conditions Fewer Conditions

Druk 29.54 inches
Zicht 10.0 mijlen
Wolken Helder
Gevoelstemperatuur 14 °F
Dauwpunt 16 °F
Vochtigheid 66%
Neerslag 0.00 inches
Dikte sneeuw Niet beschikbaar.
UV 0 van de 12
Pollen Niet beschikbaar.
Luchtkwaliteit Niet beschikbaar.
Flu Activity Niet beschikbaar.
METAR PAIK 211801Z AUTO 08013G24KT 10SM CLR M03/M09 A2942 RMK AO2 SLP003 T10331089 11022 21044 58007 FZRANO

More Conditions Fewer Conditions

10-Day Weather Forecast

Almanac

Astronomie

Nov. 21, 2014 Opkomst Ondergang
Werkelijke tijd
Burgerlijke schemering
Nautische schemering
Astronomische schemering
Maan
Golflengte van het zichtbare licht
Daglengte
Tomorrow will be .
, % of the Moon is Illuminated

Extremen vandaag

State Highs State Lows

Community

WunderPhotos

Upload Photos

1,772,694 foto’s ge-upload!

WunderBlogs® & News

Nearby

Luchtkwaliteit

  Luchtkwaliteit LK-index Verontreinigende stof
Not available.

Dikte sneeuw

Station Depth Geometrische hoogte

Aardbevingen

Stad Distance Mag. Time & Date
Minimum magnitude displayed is 2.5.

Watertemperatuur langs de kust

Plaats Temperatuur

Nabije weerstations